Hauptseite
Satellitenwetter 15-Tage PrognosenKlimaSeewetter Wirbelstürme Blitz FlughäfenFAQ Newsletter Über uns
Wetter : Europa Afrika Nordamerika Südamerika Asien Australien-Ozeanien Andere
Sprachen Kontakt

Frankfurt, Deutschland

Breite: 50-03N, Länge: 008-36E, Höhe: 111 m


METAR: EDDF 021420Z 03004KT 350V060 9999 FEW042 BKN280 22/11 Q1027 NOSIG
TAF: EDDF 021100Z 0212/0318 05004KT 9999 FEW030 PROB30 TEMPO 0302/0307 1200 BCFG BKN003

Zeit: 16:26 (14:26 UTC)

Beobachtung

Neuester Wetterbericht von vor 06 Minuten, um 14:20 UTC  
Wind 04 kt aus Nord/Nordost, variierte zwischen Nord und Ost/Nordost
Temperatur 22°C
Luftfeuchtigkeit 50%
Luftdruck 1027 hPa
Sichtweite 10 km oder mehr
leicht bewölkt in der Höhe von 4200 ft
Durchbrochene Bewölkung in der Höhe von 28000 ft

Maßeinheiten ändern

Prognose

Neuester Wetterbericht von vor 03 Stunden und 26 Minuten, um 11:00 UTC  
Gültige Prognose vom 02 um 12 UTC bis 03 um 18 UTC
Wind 04 kt aus Nordost
Sichtweite 10 km oder mehr
leicht bewölkt in der Höhe von 3000 ft
Wahrscheinlichkeit 30% :
Zeitweise
vom 03 um 02 UTC bis 03 um 07 UTC
Sichtweite 1200 m
Durchbrochene Bewölkung in der Höhe von 300 ft
Nebelschwaden
Die Angaben auf diesen Webseiten unterliegen einer Erklärung über den Haftungsausschluss
Wetter : Europa Afrika Nordamerika Südamerika Asien Australien-Ozeanien Andere
Satellitenwetter 15-Tage PrognosenKlimaSeewetter Wirbelstürme Blitz FlughäfenFAQ Sprachen Kontakt Newsletter Über uns